Portada
METAR-TAF:

METAR-TAF

Aeropuertos :

Port Hawkesbury, Nueva Escocia, Canadá

latitud: 45-40N, longitud: 061-23W, altitud: 114 m

Observación

El informe se hizo hace 58 minutos, a las 18:00 UTC
Viento 8 kt del oeste-noroeste, variando entre oeste y norte-noroeste
Temperatura 18°C
Humedad 83%
Presión 1005 hPa
Visibilidad: 14.5 km
Cielo cubierto a una altura de 700 ft

METAR: CYPD 241800Z AUTO 29008KT 260V330 9SM OVC007 18/15 A2968 RMK SLP053 DENSITY ALT 1000FT

Hora: 15:58 (18:58 UTC)


TAF: falta

Observaciones y pronósticos meteorológicos de más de 4000 aeropuertos (mensajes METAR y TAF).

Los puntos amarillos y rojos representan las estaciones disponibles.

Ponga el ratón en el punto deseado para ver el nombre de la estación.

Haga clic para ver las observaciones y los pronósticos meteorológicos.

Para cambiar el mapa : haga clic en los botones verdes con una cruz de color negro para hacer un zoom, en el botón verde con un guión para alejar o en las flechas verdes para mapas adyacentes.


METAR-TAF: